^^
Station Historical Data
 
Daily Summary for August 15, 2018 Units:  English    Metric   Both
« Previous Day
Next Day »
Daily Weekly Monthly Yearly Custom
  Current: High: Low: Average:
Temperature: 79.2 °F TemperatureF °F 61.3 °F 71.3 °F
Dew Point: 73.9 °F DewpointF °F 59.9 °F 66 °F
Humidity: 84% Humidity% 56% 85%
Wind Speed: 0mph WindSpeedMPHmph 0mph 0mph
Wind Gust: 0mph WindSpeedGustMPHmph - -
WindCalm - - NW
Pressure: 30.09 in PressureIn in 30.06 in -
Precipitation: 0 in      
Historical Graphs
 
 
Tabular Data for August 15, 2018
Time Temperature Dew Point Pressure Wind Wind Speed Wind Gust Humidity Rainfall Rate (Hourly)
TemperatureF °F DewpointF °F PressureIn in Calm     Humidity% HourlyPrecipIn in
00:04 66.9 °F 65.1 °F 30.09 in Calm     94% 0 in
00:09 66.7 °F 64.9 °F 30.10 in Calm     94% 0 in
00:14 66.7 °F 64.9 °F 30.10 in Calm     94% 0 in
00:18 66.7 °F 64.9 °F 30.10 in Calm     94% 0 in
00:24 66.6 °F 64.8 °F 30.10 in Calm     94% 0 in
00:29 66.6 °F 64.8 °F 30.10 in Calm     94% 0 in
00:34 66.6 °F 64.8 °F 30.10 in Calm     94% 0 in
00:39 66.6 °F 64.8 °F 30.10 in Calm     94% 0 in
00:44 66.4 °F 64.6 °F 30.10 in Calm     94% 0 in
00:49 66.4 °F 64.6 °F 30.10 in Calm     94% 0 in
00:54 66.2 °F 64.4 °F 30.09 in Calm     94% 0 in
00:59 66 °F 64.2 °F 30.09 in Calm     94% 0 in
01:04 66 °F 64.2 °F 30.09 in Calm     94% 0 in
01:09 66 °F 64.2 °F 30.09 in Calm     94% 0 in
01:14 65.8 °F 64 °F 30.09 in Calm     94% 0 in
01:19 65.8 °F 64 °F 30.09 in Calm     94% 0 in
01:24 65.7 °F 63.9 °F 30.10 in Calm     94% 0 in
01:29 65.7 °F 63.9 °F 30.10 in Calm     94% 0 in
01:34 65.5 °F 63.7 °F 30.10 in Calm     94% 0 in
01:39 65.5 °F 63.7 °F 30.09 in Calm     94% 0 in
01:44 65.3 °F 63.5 °F 30.09 in Calm     94% 0 in
01:49 65.1 °F 63.3 °F 30.09 in Calm     94% 0 in
01:54 65.1 °F 63.3 °F 30.09 in Calm     94% 0 in
01:59 64.9 °F 63.1 °F 30.09 in Calm     94% 0 in
02:04 64.9 °F 63.1 °F 30.09 in Calm     94% 0 in
02:09 64.9 °F 63.1 °F 30.09 in Calm     94% 0 in
02:14 64.8 °F 63 °F 30.09 in Calm     94% 0 in
02:19 64.8 °F 63 °F 30.08 in Calm     94% 0 in
02:24 64.6 °F 62.8 °F 30.09 in Calm     94% 0 in
02:29 64.6 °F 62.8 °F 30.09 in Calm     94% 0 in
02:34 64.6 °F 62.8 °F 30.08 in Calm     94% 0 in
02:39 64.6 °F 62.8 °F 30.08 in Calm     94% 0 in
02:44 64.6 °F 63.1 °F 30.08 in Calm     95% 0 in
02:49 64.4 °F 63 °F 30.08 in Calm     95% 0 in
02:54 64.2 °F 62.8 °F 30.08 in Calm     95% 0 in
02:59 64.2 °F 62.8 °F 30.08 in Calm     95% 0 in
03:04 64 °F 62.6 °F 30.08 in Calm     95% 0 in
03:09 64 °F 62.6 °F 30.08 in Calm     95% 0 in
03:14 64 °F 62.6 °F 30.08 in Calm     95% 0 in
03:19 64 °F 62.6 °F 30.08 in Calm     95% 0 in
03:24 64 °F 62.6 °F 30.08 in Calm     95% 0 in
03:29 63.9 °F 62.4 °F 30.08 in Calm     95% 0 in
03:34 63.9 °F 62.4 °F 30.08 in Calm     95% 0 in
03:39 63.7 °F 62.2 °F 30.08 in Calm     95% 0 in
03:44 63.7 °F 62.2 °F 30.08 in Calm     95% 0 in
03:49 63.7 °F 62.2 °F 30.08 in Calm     95% 0 in
03:54 63.7 °F 62.2 °F 30.08 in Calm     95% 0 in
03:59 63.5 °F 62.1 °F 30.08 in Calm     95% 0 in
04:04 63.3 °F 61.9 °F 30.08 in Calm     95% 0 in
04:09 63.3 °F 61.9 °F 30.08 in Calm     95% 0 in
04:14 63.1 °F 61.7 °F 30.08 in Calm     95% 0 in
04:19 63.1 °F 61.7 °F 30.08 in Calm     95% 0 in
04:24 63 °F 61.5 °F 30.08 in Calm     95% 0 in
04:29 63 °F 61.5 °F 30.08 in Calm     95% 0 in
04:34 63 °F 61.5 °F 30.08 in Calm     95% 0 in
04:39 62.8 °F 61.3 °F 30.07 in Calm     95% 0 in
04:44 62.8 °F 61.3 °F 30.08 in Calm     95% 0 in
04:49 62.8 °F 61.3 °F 30.08 in Calm     95% 0 in
04:54 62.8 °F 61.3 °F 30.07 in Calm     95% 0 in
04:59 62.8 °F 61.3 °F 30.07 in Calm     95% 0 in
05:04 62.8 °F 61.3 °F 30.07 in Calm     95% 0 in
05:09 62.6 °F 61.2 °F 30.07 in Calm     95% 0 in
05:14 62.6 °F 61.2 °F 30.07 in Calm     95% 0 in
05:19 62.6 °F 61.2 °F 30.06 in Calm     95% 0 in
05:24 62.4 °F 61 °F 30.06 in Calm     95% 0 in
05:29 62.4 °F 61 °F 30.06 in Calm     95% 0 in
05:34 62.2 °F 60.8 °F 30.06 in Calm     95% 0 in
05:39 62.2 °F 60.8 °F 30.07 in Calm     95% 0 in
05:44 62.1 °F 60.6 °F 30.06 in Calm     95% 0 in
05:49 61.9 °F 60.4 °F 30.07 in Calm     95% 0 in
05:54 61.9 °F 60.4 °F 30.07 in Calm     95% 0 in
05:59 61.9 °F 60.4 °F 30.07 in Calm     95% 0 in
06:04 61.9 °F 60.4 °F 30.07 in Calm     95% 0 in
06:09 61.9 °F 60.4 °F 30.08 in Calm     95% 0 in
06:14 61.7 °F 60.3 °F 30.08 in Calm     95% 0 in
06:19 61.7 °F 60.3 °F 30.08 in Calm     95% 0 in
06:24 61.5 °F 60.1 °F 30.08 in Calm     95% 0 in
06:29 61.5 °F 60.1 °F 30.08 in Calm     95% 0 in
06:34 61.5 °F 60.1 °F 30.08 in Calm     95% 0 in
06:39 61.3 °F 59.9 °F 30.07 in Calm     95% 0 in
06:44 61.3 °F 59.9 °F 30.07 in Calm     95% 0 in
06:49 61.3 °F 59.9 °F 30.07 in Calm     95% 0 in
06:54 61.3 °F 59.9 °F 30.07 in Calm     95% 0 in
06:59 61.3 °F 59.9 °F 30.08 in Calm     95% 0 in
07:04 61.5 °F 60.1 °F 30.08 in Calm     95% 0 in
07:09 61.5 °F 60.1 °F 30.08 in Calm     95% 0 in
07:14 61.5 °F 60.1 °F 30.08 in Calm     95% 0 in
07:19 61.3 °F 59.9 °F 30.09 in Calm     95% 0 in
07:24 61.3 °F 59.9 °F 30.09 in Calm     95% 0 in
07:29 61.3 °F 59.9 °F 30.09 in Calm     95% 0 in
07:34 61.3 °F 59.9 °F 30.09 in Calm     95% 0 in
07:39 61.3 °F 59.9 °F 30.09 in Calm     95% 0 in
07:44 61.5 °F 60.1 °F 30.09 in Calm     95% 0 in
07:49 61.5 °F 60.1 °F 30.10 in Calm     95% 0 in
07:54 61.7 °F 60.6 °F 30.10 in Calm     96% 0 in
07:59 61.7 °F 60.6 °F 30.10 in Calm     96% 0 in
08:04 61.9 °F 60.8 °F 30.10 in Calm     96% 0 in
08:09 61.9 °F 60.8 °F 30.10 in Calm     96% 0 in
08:14 62.2 °F 61.2 °F 30.11 in Calm     96% 0 in
08:19 62.4 °F 61.3 °F 30.11 in Calm     96% 0 in
08:24 62.6 °F 61.5 °F 30.11 in Calm     96% 0 in
08:29 62.8 °F 61.7 °F 30.11 in Calm     96% 0 in
08:34 63 °F 61.9 °F 30.11 in Calm     96% 0 in
08:39 63.1 °F 62.1 °F 30.11 in Calm     96% 0 in
08:44 63.3 °F 62.2 °F 30.12 in Calm     96% 0 in
08:49 63.7 °F 62.6 °F 30.12 in Calm     96% 0 in
08:54 63.9 °F 62.8 °F 30.12 in Calm     96% 0 in
08:59 64 °F 63 °F 30.13 in Calm     96% 0 in
09:04 64.2 °F 63.1 °F 30.13 in Calm     96% 0 in
09:09 64.8 °F 63.7 °F 30.13 in Calm     96% 0 in
09:14 65.1 °F 64 °F 30.13 in Calm     96% 0 in
09:19 65.5 °F 64.2 °F 30.13 in Calm     96% 0 in
09:24 65.7 °F 64.4 °F 30.13 in Calm     96% 0 in
09:29 66 °F 64.8 °F 30.13 in Calm     96% 0 in
09:34 66.6 °F 65.3 °F 30.13 in Calm     96% 0 in
09:39 66.9 °F 65.7 °F 30.13 in Calm     96% 0 in
09:44 67.5 °F 66.2 °F 30.13 in Calm     96% 0 in
09:49 67.6 °F 66.4 °F 30.13 in Calm     96% 0 in
09:54 68.2 °F 66.9 °F 30.13 in Calm     96% 0 in
09:59 68.5 °F 67.3 °F 30.13 in Calm     96% 0 in
10:04 68.7 °F 67.5 °F 30.13 in Calm     96% 0 in
10:09 69.3 °F 68 °F 30.13 in Calm     96% 0 in
10:14 69.6 °F 68.4 °F 30.13 in Calm     96% 0 in
10:19 70 °F 68.5 °F 30.13 in Calm     95% 0 in
10:24 70.3 °F 68.9 °F 30.13 in Calm     95% 0 in
10:29 70.9 °F 69.4 °F 30.13 in Calm     95% 0 in
10:34 71.1 °F 69.6 °F 30.13 in Calm   1 mph 95% 0 in
10:39 71.4 °F 69.3 °F 30.14 in Calm     93% 0 in
10:44 71.8 °F 69.3 °F 30.14 in Calm   1 mph 92% 0 in
10:49 72.5 °F 70 °F 30.14 in Calm     92% 0 in
10:54 73.2 °F 70.5 °F 30.14 in Calm   1 mph 91% 0 in
10:59 73.8 °F 70.7 °F 30.14 in Calm     90% 0 in
11:04 74.1 °F 71.2 °F 30.14 in Calm     91% 0 in
11:09 74.7 °F 71.6 °F 30.14 in Calm     90% 0 in
11:14 74.8 °F 71.8 °F 30.14 in Calm     90% 0 in
11:19 75.4 °F 72 °F 30.14 in Calm     89% 0 in
11:24 75.9 °F 72.5 °F 30.13 in Calm     89% 0 in
11:29 76.5 °F 71.6 °F 30.13 in Calm     85% 0 in
11:34 77.2 °F 72.7 °F 30.13 in Calm     86% 0 in
11:39 77.5 °F 71.2 °F 30.13 in Calm     81% 0 in
11:44 77.9 °F 71.2 °F 30.13 in Calm     80% 0 in
11:49 78.4 °F 72.1 °F 30.13 in NW 0.9 mph 1 mph 81% 0 in
11:54 78.6 °F 69.3 °F 30.13 in Calm   1 mph 73% 0 in
11:59 79.3 °F 70.3 °F 30.13 in Calm     74% 0 in
12:04 79.5 °F 70.5 °F 30.13 in Calm   1 mph 74% 0 in
12:09 79.9 °F 72 °F 30.13 in Calm   1 mph 77% 0 in
12:14 79.7 °F 69.8 °F 30.13 in Calm   1 mph 72% 0 in
12:19 80.1 °F 71.8 °F 30.13 in Calm     76% 0 in
12:24 80.2 °F 71.6 °F 30.13 in Calm     75% 0 in
12:29 80.4 °F 71.8 °F 30.13 in Calm     75% 0 in
12:34 80.2 °F 71.6 °F 30.13 in Calm     75% 0 in
12:39 80.1 °F 70.7 °F 30.13 in Calm   1 mph 73% 0 in
12:44 80.1 °F 71.8 °F 30.13 in Calm     76% 0 in
12:49 80.1 °F 71.4 °F 30.13 in Calm     75% 0 in
12:54 79.9 °F 71.2 °F 30.13 in Calm     75% 0 in
12:59 80.1 °F 71.8 °F 30.13 in Calm     76% 0 in
13:04 80.1 °F 71.8 °F 30.13 in Calm     76% 0 in
13:09 80.1 °F 70.2 °F 30.13 in Calm   1 mph 72% 0 in
13:13 80.2 °F 70 °F 30.13 in NW 0.9 mph 1 mph 71% 0 in
13:19 80.8 °F 70.5 °F 30.13 in Calm     71% 0 in
13:24 81.1 °F 71.2 °F 30.12 in Calm     72% 0 in
13:29 81.3 °F 72.3 °F 30.12 in Calm     74% 0 in
13:34 81.5 °F 68.5 °F 30.12 in NW 2 mph 3 mph 65% 0 in
13:39 81.9 °F 67.6 °F 30.12 in Calm   1 mph 62% 0 in
13:44 82.2 °F 67.8 °F 30.12 in Calm     62% 0 in
13:49 82.8 °F 68.9 °F 30.12 in Calm     63% 0 in
13:54 82.9 °F 69.4 °F 30.12 in Calm     64% 0 in
13:59 83.1 °F 69.3 °F 30.11 in Calm     63% 0 in
14:04 83.1 °F 70.2 °F 30.11 in Calm     65% 0 in
14:09 82.9 °F 69.4 °F 30.11 in Calm     64% 0 in
14:10 82.9 °F 69.4 °F 30.12 in Calm     64% 0 in
14:12 82.9 °F 69.4 °F 30.12 in Calm     64% 0 in
14:20 83.5 °F 68.2 °F 30.11 in Calm     60% 0 in
14:27 84 °F 66.6 °F 30.11 in Calm   1 mph 56% 0 in
14:34 84.4 °F 66.9 °F 30.11 in Calm     56% 0 in
14:39 84.4 °F 68 °F 30.11 in Calm     58% 0 in
14:44 84 °F 68.2 °F 30.11 in Calm     59% 0 in
14:49 83.7 °F 67.8 °F 30.11 in Calm     59% 0 in
14:54 83.8 °F 66.9 °F 30.11 in Calm   1 mph 57% 0 in
14:59 83.8 °F 70.3 °F 30.11 in Calm     64% 0 in
15:04 84 °F 69.1 °F 30.11 in Calm     61% 0 in
15:09 84.2 °F 68.4 °F 30.10 in Calm   2 mph 59% 0 in
15:14 84.4 °F 68 °F 30.11 in Calm   3 mph 58% 0 in
15:18 84.6 °F 68.7 °F 30.11 in Calm     59% 0 in
15:24 84.2 °F 69.3 °F 30.11 in Calm     61% 0 in
15:29 84 °F 69.1 °F 30.11 in Calm     61% 0 in
15:34 84 °F 67.6 °F 30.10 in Calm   1 mph 58% 0 in
15:39 84.6 °F 69.6 °F 30.10 in Calm   1 mph 61% 0 in
15:44 84.6 °F 70.5 °F 30.10 in Calm     63% 0 in
15:49 84 °F 70 °F 30.10 in Calm     63% 0 in
15:54 83.7 °F 69.3 °F 30.09 in Calm     62% 0 in
15:59 83.5 °F 70 °F 30.09 in Calm     64% 0 in
16:04 83.3 °F 70.7 °F 30.09 in Calm     66% 0 in
16:09 83.1 °F 67.8 °F 30.09 in Calm   2 mph 60% 0 in
16:14 83.5 °F 69.6 °F 30.09 in Calm     63% 0 in
16:19 83.7 °F 70.7 °F 30.09 in Calm     65% 0 in
16:24 83.8 °F 70.9 °F 30.09 in Calm     65% 0 in
16:29 84 °F 72.7 °F 30.08 in Calm     69% 0 in
16:34 83.7 °F 70.2 °F 30.08 in Calm   1 mph 64% 0 in
16:39 83.7 °F 70.2 °F 30.08 in Calm     64% 0 in
16:44 83.8 °F 73.8 °F 30.08 in Calm     72% 0 in
16:49 83.5 °F 71.4 °F 30.08 in Calm     67% 0 in
16:54 83.1 °F 70.5 °F 30.08 in Calm     66% 0 in
16:59 83.3 °F 68.9 °F 30.08 in Calm   1 mph 62% 0 in
17:04 83.7 °F 72.9 °F 30.08 in Calm     70% 0 in
17:09 83.5 °F 69.1 °F 30.08 in Calm     62% 0 in
17:14 83.5 °F 70 °F 30.08 in Calm     64% 0 in
17:19 83.5 °F 73 °F 30.08 in Calm     71% 0 in
17:24 83.1 °F 70.5 °F 30.08 in Calm   1 mph 66% 0 in
17:29 83.1 °F 73.9 °F 30.08 in Calm     74% 0 in
17:34 82.8 °F 73.9 °F 30.08 in Calm     75% 0 in
17:39 82.2 °F 73 °F 30.08 in Calm     74% 0 in
17:44 81.9 °F 73.6 °F 30.08 in Calm     76% 0 in
17:49 81.5 °F 73.9 °F 30.08 in Calm     78% 0 in
17:54 81.1 °F 73.9 °F 30.08 in Calm     79% 0 in
17:59 81 °F 73.8 °F 30.08 in Calm     79% 0 in
18:04 80.8 °F 73.9 °F 30.08 in Calm     80% 0 in
18:09 80.8 °F 74.5 °F 30.08 in Calm     81% 0 in
18:14 80.6 °F 74.7 °F 30.08 in Calm     82% 0 in
18:19 80.4 °F 74.5 °F 30.09 in Calm     82% 0 in
18:24 80.2 °F 74.3 °F 30.09 in Calm     82% 0 in
18:29 80.1 °F 74.1 °F 30.09 in Calm     82% 0 in
18:34 79.9 °F 74.3 °F 30.09 in Calm     83% 0 in
18:39 79.5 °F 73.9 °F 30.09 in Calm     83% 0 in
18:44 79.3 °F 73.8 °F 30.09 in Calm     83% 0 in
18:49 79.2 °F 73.9 °F 30.09 in Calm     84% 0 in
Ellijay Weather
Compliments of Weather Underground - 2.25 mb